Fort Benton (79S)
Fort Benton, MT
Field Elevation: 2869
Lat: 47°50.42N  Long: 110°38.11W
CTAF/Unicom Freq: 122.8000
   
     For Weather-by-Phone, call 406-622-5976
Weather Advisories
3/3/2015 18:40 Z
Altimeter 30.19" Hg
Wind 300° @ 10 KT
Gusts 17 KT
Visibility 10 SM
Temperature -8° C (18° F)
Dewpoint -20° C (-4° F)
Relative Humidity 40%
Density Altitude --
Condensation Altitude 8,700 feet
Wind Chill -15° C (5° F)
  Wind and Runways
Indicated Runway = 32
History
 
 
More Info
All DigiWx sites map
NOAA Forecast
 
Airport IQ 5010
(6S5) Ravalli County
(S71) Edgar Obie
 
about DigiWx
 
FAA Disclaimer: The data displayed is for advisory purposes only and is not to be used for flight planning or operations. For official data, please call 406-622-5976 to hear the current automated AWOS voice message.
  METAR 79S 031840Z AUTO 30010G17KT 10SM M08/M20 A3019